Terminal Aerodrome Forecast
Issued by NWS

Home | Current Version | Previous Version | Text Only | Print | Product List | Glossary On
Versions: 1 2 3 4 5 6 7 8 9 10 11 12 13 14 15 16 17
000
FTUS46 KSEW 291200 AAA
TAFCLM
TAF AMD
KCLM 291211Z 2912/3012 25005KT P6SM SCT022 BKN050 OVC130
      TEMPO 2912/2914 BKN022 OVC050
     FM291400 25005KT P6SM OVC020
     FM291700 29007KT P6SM VCSH BKN015 OVC020
     FM292100 33007KT P6SM VCSH BKN025 OVC040=

USA.gov is the U.S. government's official web portal to all federal, state and local government web resources and services.